M I D A S
Marine Information and Data Acquisition System
Tripno 365 of the Zeeleeuw from 2002-11-26 08:20:16 to 2002-11-26 14:46:04
Back to CruiseResearch ActivitiesStationsMapUnderway DataData graphs

EquipmentUnitsComment
TimeDGPSUTC
LatitudeDGPSDM.mWGS84
LongitudeDGPSDM.mWGS84
TemperatureSBE03/SBE38deg celciusITS90
ConductivitySBE21S/mITS90
SalinitySBE21 Practical Salinity Units
ChlorophylAChelsea fluorimeterg/lCalibrated in Aceton
Missing or incorrect values are displayed as -999
Sea surface data collected by the RV Zeeleeuw from 2002-11-26 08:20:16 to 2002-11-26 14:46:04
                                                                                    Next 1000 lines
Time Latitude Longitude Temperature Conductivity Salinity ChlorophylA
2002-11-26 08:20:25 51°13.705 2°55.755 -999 0.066742 0.349697  
2002-11-26 08:20:30 51°13.707 2°55.757 -999 0.066742 0.349697  
2002-11-26 08:20:36 51°13.708 2°55.758 -999 0.066742 0.349697  
2002-11-26 08:20:42 51°13.709 2°55.758 -999 0.066742 0.349702  
2002-11-26 08:20:46 51°13.71 2°55.758 -999 0.066742 0.349702  
2002-11-26 08:20:51 51°13.71 2°55.758 -999 0.066742 0.349697  
2002-11-26 08:20:55 51°13.71 2°55.757 -999 0.066742 0.349702  
2002-11-26 08:21:01 51°13.71 2°55.755 -999 0.066742 0.349702  
2002-11-26 08:21:06 51°13.709 2°55.753 -999 0.066742 0.349702  
2002-11-26 08:21:11 51°13.708 2°55.751 -999 0.066742 0.349697  
2002-11-26 08:21:16 51°13.706 2°55.749 -999 0.066742 0.349702  
2002-11-26 08:21:21 51°13.705 2°55.747 -999 0.066742 0.349702  
2002-11-26 08:21:27 51°13.703 2°55.744 -999 0.066742 0.349697  
2002-11-26 08:21:31 51°13.701 2°55.743 -999 0.066742 0.349697  
2002-11-26 08:21:37 51°13.7 2°55.74 -999 0.066742 0.349708  
2002-11-26 08:21:43 51°13.698 2°55.738 -999 0.066742 0.349708  
2002-11-26 08:21:47 51°13.698 2°55.737 -999 0.066742 0.349708  
2002-11-26 08:21:52 51°13.697 2°55.736 -999 0.066742 0.349713  
2002-11-26 08:21:57 51°13.697 2°55.735 -999 0.066742 0.349713  
2002-11-26 08:22:01 51°13.697 2°55.735 -999 0.066742 0.349713  
2002-11-26 08:22:06 51°13.698 2°55.734 -999 0.066742 0.349713  
2002-11-26 08:22:11 51°13.699 2°55.734 -999 0.066742 0.349713  
2002-11-26 08:22:15 51°13.7 2°55.733 -999 0.066742 0.349718  
2002-11-26 08:22:21 51°13.703 2°55.732 -999 0.066742 0.349723  
2002-11-26 08:22:27 51°13.705 2°55.73 -999 0.066742 0.349723  
2002-11-26 08:22:32 51°13.708 2°55.728 -999 0.066742 0.349723  
2002-11-26 08:22:37 51°13.712 2°55.726 -999 0.066742 0.349723  
2002-11-26 08:22:41 51°13.715 2°55.724 -999 0.066742 0.349723  
2002-11-26 08:22:46 51°13.719 2°55.721 -999 0.066742 0.349723  
2002-11-26 08:22:50 51°13.723 2°55.718 -999 0.066742 0.349723  
2002-11-26 08:22:56 51°13.729 2°55.713 -999 0.066742 0.349713  
2002-11-26 08:23:01 51°13.735 2°55.709 -999 0.066742 0.349713  
2002-11-26 08:23:07 51°13.742 2°55.703 -999 0.066742 0.349718  
2002-11-26 08:23:12 51°13.749 2°55.698 -999 0.066742 0.349723  
2002-11-26 08:23:16 51°13.754 2°55.693 -999 0.066742 0.349729  
2002-11-26 08:23:21 51°13.761 2°55.688 -999 0.066742 0.349734  
2002-11-26 08:23:25 51°13.767 2°55.682 -999 0.066742 0.349734  
2002-11-26 08:23:31 51°13.776 2°55.675 -999 0.066742 0.349734  
2002-11-26 08:23:37 51°13.785 2°55.668 -999 0.066742 0.349739  
2002-11-26 08:23:41 51°13.792 2°55.663 -999 0.066742 0.349739  
2002-11-26 08:23:47 51°13.802 2°55.656 -999 0.066742 0.349745  
2002-11-26 08:23:51 51°13.808 2°55.652 -999 0.066742 0.34975  
2002-11-26 08:23:56 51°13.817 2°55.646 -999 0.066742 0.349745  
2002-11-26 08:24:01 51°13.826 2°55.64 -999 0.066742 0.349745  
2002-11-26 08:24:06 51°13.835 2°55.635 -999 0.066742 0.349745  
2002-11-26 08:24:11 51°13.844 2°55.629 -999 0.066742 0.34975  
2002-11-26 08:24:16 51°13.853 2°55.623 -999 0.066742 0.349755  
2002-11-26 08:24:22 51°13.864 2°55.614 -999 0.066742 0.349761  
2002-11-26 08:24:27 51°13.873 2°55.608 -999 0.066742 0.349761  
2002-11-26 08:24:31 51°13.881 2°55.602 -999 0.066742 0.349761  
2002-11-26 08:24:35 51°13.888 2°55.597 -999 0.066742 0.349766  
2002-11-26 08:24:42 51°13.901 2°55.589 -999 0.066742 0.349766  
2002-11-26 08:24:46 51°13.908 2°55.583 -999 0.066742 0.349766  
2002-11-26 08:24:52 51°13.919 2°55.575 -999 0.066742 0.349766  
2002-11-26 08:24:56 51°13.927 2°55.57 -999 0.066742 0.349766  
2002-11-26 08:25:01 51°13.936 2°55.563 -999 0.066742 0.349766  
2002-11-26 08:25:05 51°13.944 2°55.558 -999 0.066742 0.349766  
2002-11-26 08:25:11 51°13.955 2°55.55 -999 0.066742 0.349766  
2002-11-26 08:25:15 51°13.962 2°55.545 -999 0.066742 0.349766  
2002-11-26 08:25:21 51°13.974 2°55.537 -999 0.066742 0.349771  
2002-11-26 08:25:26 51°13.983 2°55.53 -999 0.066742 0.349771  
2002-11-26 08:25:31 51°13.993 2°55.523 -999 0.066742 0.349771  
2002-11-26 08:25:36 51°14.002 2°55.517 -999 0.066742 0.349777  
2002-11-26 08:25:40 51°14.01 2°55.511 -999 0.066742 0.349777  
2002-11-26 08:25:46 51°14.02 2°55.502 -999 0.066742 0.349782  
2002-11-26 08:25:51 51°14.03 2°55.494 -999 0.066742 0.349777  
2002-11-26 08:25:57 51°14.041 2°55.486 -999 0.066742 0.349782  
2002-11-26 08:26:01 51°14.048 2°55.48 -999 0.066742 0.349782  
2002-11-26 08:26:07 51°14.059 2°55.471 -999 0.066742 0.349782  
2002-11-26 08:26:11 51°14.067 2°55.465 -999 0.066742 0.349782  
2002-11-26 08:26:16 51°14.076 2°55.458 -999 0.066742 0.349782  
2002-11-26 08:26:20 51°14.084 2°55.452 -999 0.066742 0.349787  
2002-11-26 08:26:25 51°14.093 2°55.444 -999 0.066742 0.349787  
2002-11-26 08:26:32 51°14.107 2°55.433 -999 0.066742 0.349787  
2002-11-26 08:26:36 51°14.115 2°55.426 -999 0.066742 0.349793  
2002-11-26 08:26:42 51°14.126 2°55.416 -999 0.066742 0.349793  
2002-11-26 08:26:46 51°14.134 2°55.41 -999 0.066742 0.349793  
2002-11-26 08:26:51 51°14.144 2°55.401 -999 0.066742 0.349798  
2002-11-26 08:26:56 51°14.155 2°55.393 -999 0.066742 0.349798  
2002-11-26 08:27:01 51°14.165 2°55.385 -999 0.066742 0.349798  
2002-11-26 08:27:06 51°14.175 2°55.375 -999 0.066742 0.349798  
2002-11-26 08:27:11 51°14.185 2°55.365 -999 0.066742 0.349803  
2002-11-26 08:27:16 51°14.196 2°55.355 -999 0.066742 0.349803  
2002-11-26 08:27:21 51°14.206 2°55.344 -999 0.066742 0.349809  
2002-11-26 08:27:26 51°14.216 2°55.332 -999 0.066742 0.349809  
2002-11-26 08:27:31 51°14.225 2°55.319 -999 0.066742 0.349809  
2002-11-26 08:27:36 51°14.235 2°55.306 -999 0.066742 0.349809  
2002-11-26 08:27:41 51°14.244 2°55.293 -999 0.066742 0.349809  
2002-11-26 08:27:45 51°14.251 2°55.281 -999 0.066742 0.349814  
2002-11-26 08:27:51 51°14.261 2°55.262 -999 0.066742 0.349814  
2002-11-26 08:27:57 51°14.271 2°55.243 -999 0.066742 0.349819  
2002-11-26 08:28:01 51°14.278 2°55.23 -999 0.066742 0.349819  
2002-11-26 08:28:06 51°14.286 2°55.214 -999 0.066742 0.349809  
2002-11-26 08:28:11 51°14.295 2°55.197 -999 0.066742 0.349814  
2002-11-26 08:28:15 51°14.301 2°55.184 -999 0.066742 0.349814  
2002-11-26 08:28:21 51°14.312 2°55.165 -999 0.066742 0.349819  
2002-11-26 08:28:26 51°14.32 2°55.148 -999 0.066742 0.349819  
2002-11-26 08:28:31 51°14.328 2°55.13 -999 0.066742 0.349819  
2002-11-26 08:28:36 51°14.337 2°55.113 -999 0.066742 0.349819  
2002-11-26 08:28:41 51°14.346 2°55.096 -999 0.066742 0.349825  
2002-11-26 08:28:47 51°14.358 2°55.077 -999 0.066742 0.349819  
2002-11-26 08:28:51 51°14.367 2°55.064 -999 0.066742 0.349825  
2002-11-26 08:28:56 51°14.378 2°55.05 -999 0.066742 0.349825  
2002-11-26 08:29:01 51°14.391 2°55.037 -999 0.066742 0.349825  
2002-11-26 08:29:06 51°14.404 2°55.025 -999 0.066742 0.34983  
2002-11-26 08:29:11 51°14.417 2°55.014 -999 0.066742 0.34983  
2002-11-26 08:29:16 51°14.431 2°55.002 -999 0.066742 0.349846  
2002-11-26 08:29:21 51°14.444 2°54.99 -999 0.066742 0.349851  
2002-11-26 08:29:26 51°14.458 2°54.977 -999 0.066742 0.349856  
2002-11-26 08:29:31 51°14.472 2°54.964 -999 0.066742 0.349856  
2002-11-26 08:29:36 51°14.486 2°54.95 -999 0.066742 0.349856  
2002-11-26 08:29:40 51°14.498 2°54.939 -999 0.066742 0.349856  
2002-11-26 08:29:46 51°14.516 2°54.923 -999 0.066742 0.349851  
2002-11-26 08:29:51 51°14.531 2°54.909 -999 0.066742 0.349851  
2002-11-26 08:29:56 51°14.546 2°54.894 -999 0.066742 0.349851  
2002-11-26 08:30:01 51°14.561 2°54.88 -999 0.066742 0.349851  
2002-11-26 08:30:06 51°14.576 2°54.866 -999 0.066742 0.349851  
2002-11-26 08:30:11 51°14.592 2°54.851 -999 0.066742 0.349856  
2002-11-26 08:30:17 51°14.61 2°54.833 -999 0.066742 0.349856  
2002-11-26 08:30:21 51°14.622 2°54.822 -999 0.066742 0.349862  
2002-11-26 08:30:26 51°14.638 2°54.807 -999 0.066742 0.349862  
2002-11-26 08:30:31 51°14.654 2°54.792 -999 0.066742 0.349862  
2002-11-26 08:30:36 51°14.67 2°54.776 -999 0.066742 0.349862  
2002-11-26 08:30:40 51°14.682 2°54.765 -999 0.066742 0.349872  
2002-11-26 08:30:46 51°14.7 2°54.747 -999 0.066742 0.349862  
2002-11-26 08:30:51 51°14.716 2°54.732 -999 0.066742 0.349867  
2002-11-26 08:30:56 51°14.731 2°54.717 -999 0.066742 0.349867  
2002-11-26 08:31:00 51°14.744 2°54.705 -999 0.066742 0.349867  
2002-11-26 08:31:06 51°14.763 2°54.688 -999 0.066742 0.349867  
2002-11-26 08:31:11 51°14.779 2°54.673 -999 0.066742 0.349872  
2002-11-26 08:31:16 51°14.795 2°54.658 -999 0.066742 0.349867  
2002-11-26 08:31:20 51°14.807 2°54.646 -999 0.066742 0.349872  
2002-11-26 08:31:26 51°14.826 2°54.629 -999 0.066742 0.349872  
2002-11-26 08:31:31 51°14.842 2°54.614 -999 0.066742 0.349872  
2002-11-26 08:31:36 51°14.858 2°54.599 -999 0.066742 0.349872  
2002-11-26 08:31:40 51°14.871 2°54.588 -999 0.066742 0.349883  
2002-11-26 08:31:46 51°14.89 2°54.57 -999 0.066742 0.349878  
2002-11-26 08:31:51 51°14.906 2°54.556 -999 0.066742 0.349883  
2002-11-26 08:31:56 51°14.922 2°54.541 -999 0.066742 0.349878  
2002-11-26 08:32:00 51°14.935 2°54.53 -999 0.066742 0.349878  
2002-11-26 08:32:06 51°14.954 2°54.512 -999 0.066742 0.349883  
2002-11-26 08:32:11 51°14.969 2°54.498 -999 0.066742 0.349888  
2002-11-26 08:32:16 51°14.985 2°54.483 -999 0.066742 0.349888  
2002-11-26 08:32:20 51°14.998 2°54.472 -999 0.066742 0.349888  
2002-11-26 08:32:26 51°15.017 2°54.455 -999 0.066742 0.349888  
2002-11-26 08:32:31 51°15.033 2°54.44 -999 0.066742 0.349888  
2002-11-26 08:32:36 51°15.048 2°54.426 -999 0.066742 0.349888  
2002-11-26 08:32:40 51°15.061 2°54.414 -999 0.066742 0.349888  
2002-11-26 08:32:46 51°15.08 2°54.397 -999 0.066742 0.349888  
2002-11-26 08:32:51 51°15.096 2°54.382 -999 0.066742 0.349888  
2002-11-26 08:32:56 51°15.111 2°54.368 -999 0.066742 0.349899  
2002-11-26 08:33:01 51°15.128 2°54.353 -999 0.066742 0.349899  
2002-11-26 08:33:06 51°15.143 2°54.339 -999 0.066742 0.349894  
2002-11-26 08:33:11 51°15.159 2°54.324 -999 0.066742 0.349904  
2002-11-26 08:33:16 51°15.175 2°54.31 -999 0.066742 0.349904  
2002-11-26 08:33:20 51°15.188 2°54.298 -999 0.066742 0.349904  
2002-11-26 08:33:26 51°15.207 2°54.28 -999 0.066742 0.34991  
2002-11-26 08:33:31 51°15.224 2°54.266 -999 0.066742 0.34991  
2002-11-26 08:33:36 51°15.24 2°54.251 -999 0.066742 0.349904  
2002-11-26 08:33:40 51°15.252 2°54.239 -999 0.066742 0.349904  
2002-11-26 08:33:46 51°15.272 2°54.222 -999 0.066742 0.34991  
2002-11-26 08:33:51 51°15.288 2°54.207 -999 0.066742 0.34991  
2002-11-26 08:33:56 51°15.305 2°54.192 -999 0.066742 0.34991  
2002-11-26 08:34:00 51°15.318 2°54.18 -999 0.066742 0.34991  
2002-11-26 08:34:06 51°15.337 2°54.163 -999 0.066742 0.34991  
2002-11-26 08:34:11 51°15.354 2°54.148 -999 0.066742 0.34991  
2002-11-26 08:34:16 51°15.37 2°54.133 -999 0.066742 0.34992  
2002-11-26 08:34:20 51°15.383 2°54.121 -999 0.066742 0.349915  
2002-11-26 08:34:26 51°15.402 2°54.103 -999 0.066742 0.34992  
2002-11-26 08:34:31 51°15.418 2°54.088 -999 0.066742 0.34992  
2002-11-26 08:34:36 51°15.435 2°54.073 -999 0.066742 0.349926  
2002-11-26 08:34:40 51°15.448 2°54.061 -999 0.066742 0.349926  
2002-11-26 08:34:46 51°15.467 2°54.043 -999 0.066742 0.349926  
2002-11-26 08:34:51 51°15.483 2°54.028 -999 0.066742 0.349926  
2002-11-26 08:34:56 51°15.5 2°54.012 -999 0.066742 0.349931  
2002-11-26 08:35:01 51°15.516 2°53.997 -999 0.066742 0.349931  
2002-11-26 08:35:06 51°15.532 2°53.982 -999 0.066742 0.349936  
2002-11-26 08:35:11 51°15.548 2°53.967 -999 0.066742 0.349936  
2002-11-26 08:35:16 51°15.564 2°53.952 -999 0.066742 0.349936  
2002-11-26 08:35:21 51°15.581 2°53.937 -999 0.066742 0.349936  
2002-11-26 08:35:26 51°15.597 2°53.922 -999 0.066742 0.349942  
2002-11-26 08:35:31 51°15.613 2°53.907 -999 0.066742 0.349942  
2002-11-26 08:35:36 51°15.63 2°53.892 -999 0.066742 0.349936  
2002-11-26 08:35:40 51°15.642 2°53.879 -999 0.066742 0.349942  
2002-11-26 08:35:46 51°15.662 2°53.862 -999 0.066742 0.349942  
2002-11-26 08:35:51 51°15.678 2°53.847 -999 0.066742 0.349947  
2002-11-26 08:35:56 51°15.694 2°53.832 -999 0.066742 0.349947  
2002-11-26 08:36:00 51°15.707 2°53.82 -999 0.066742 0.349947  
2002-11-26 08:36:06 51°15.726 2°53.802 -999 0.066742 0.349952  
2002-11-26 08:36:11 51°15.742 2°53.787 -999 0.066742 0.349947  
2002-11-26 08:36:16 51°15.758 2°53.772 -999 0.066742 0.349952  
2002-11-26 08:36:20 51°15.771 2°53.759 -999 0.066742 0.349952  
2002-11-26 08:36:26 51°15.79 2°53.741 -999 0.066742 0.349958  
2002-11-26 08:36:31 51°15.806 2°53.725 -999 0.066742 0.349958  
2002-11-26 08:36:36 51°15.822 2°53.71 -999 0.066742 0.349952  
2002-11-26 08:36:40 51°15.834 2°53.698 -999 0.066742 0.349952  
2002-11-26 08:36:46 51°15.854 2°53.68 -999 0.066742 0.349963  
2002-11-26 08:36:51 51°15.869 2°53.665 -999 0.066742 0.349963  
2002-11-26 08:36:56 51°15.886 2°53.649 -999 0.066742 0.349963  
2002-11-26 08:37:01 51°15.902 2°53.634 -999 0.066742 0.349963  
2002-11-26 08:37:06 51°15.918 2°53.619 -999 0.066742 0.349963  
2002-11-26 08:37:11 51°15.935 2°53.603 -999 0.066742 0.349963  
2002-11-26 08:37:16 51°15.951 2°53.587 -999 0.066742 0.349968  
2002-11-26 08:37:20 51°15.965 2°53.575 -999 0.066742 0.349968  
2002-11-26 08:37:26 51°15.984 2°53.556 -999 0.066742 0.349968  
2002-11-26 08:37:31 51°16.001 2°53.541 -999 0.066742 0.349968  
2002-11-26 08:37:36 51°16.018 2°53.525 -999 0.066742 0.349974  
2002-11-26 08:37:40 51°16.032 2°53.513 -999 0.066742 0.349968  
2002-11-26 08:37:46 51°16.052 2°53.496 -999 0.066742 0.349968  
2002-11-26 08:37:51 51°16.069 2°53.481 -999 0.066742 0.349974  
2002-11-26 08:37:56 51°16.086 2°53.467 -999 0.066742 0.349974  
2002-11-26 08:38:00 51°16.1 2°53.455 -999 0.066742 0.349974  
2002-11-26 08:38:06 51°16.121 2°53.439 -999 0.066742 0.349979  
2002-11-26 08:38:11 51°16.138 2°53.424 -999 0.066742 0.349979  
2002-11-26 08:38:16 51°16.155 2°53.409 -999 0.066742 0.349984  
2002-11-26 08:38:20 51°16.169 2°53.398 -999 0.066742 0.349984  
2002-11-26 08:38:26 51°16.19 2°53.38 -999 0.066742 0.349995  
2002-11-26 08:38:31 51°16.207 2°53.366 -999 0.066742 0.349995  
2002-11-26 08:38:36 51°16.224 2°53.352 -999 0.066742 0.349984  
2002-11-26 08:38:40 51°16.238 2°53.34 -999 0.066742 0.349984  
2002-11-26 08:38:46 51°16.259 2°53.322 -999 0.066742 0.349984  
2002-11-26 08:38:51 51°16.276 2°53.308 -999 0.066742 0.349995  
2002-11-26 08:38:56 51°16.293 2°53.293 -999 0.066742 0.34999  
2002-11-26 08:39:00 51°16.307 2°53.281 -999 0.066742 0.34999  
2002-11-26 08:39:06 51°16.328 2°53.264 -999 0.066742 0.349995  
2002-11-26 08:39:11 51°16.345 2°53.249 -999 0.066742 0.34999  
2002-11-26 08:39:16 51°16.362 2°53.234 -999 0.066742 0.34999  
2002-11-26 08:39:20 51°16.376 2°53.222 -999 0.066742 0.35  
2002-11-26 08:39:26 51°16.396 2°53.205 -999 0.066742 0.35  
2002-11-26 08:39:31 51°16.413 2°53.19 -999 0.066742 0.35  
2002-11-26 08:39:36 51°16.431 2°53.175 -999 0.066742 0.349995  
2002-11-26 08:39:40 51°16.445 2°53.163 -999 0.066742 0.350005  
2002-11-26 08:39:46 51°16.465 2°53.145 -999 0.066742 0.35  
2002-11-26 08:39:51 51°16.483 2°53.131 -999 0.066742 0.350005  
2002-11-26 08:39:56 51°16.5 2°53.117 -999 0.066742 0.350005  
2002-11-26 08:40:00 51°16.514 2°53.105 -999 0.066742 0.350005  
2002-11-26 08:40:06 51°16.534 2°53.088 -999 0.066742 0.350011  
2002-11-26 08:40:11 51°16.552 2°53.073 -999 0.066742 0.350011  
2002-11-26 08:40:16 51°16.569 2°53.059 -999 0.066742 0.350011  
2002-11-26 08:40:21 51°16.586 2°53.044 -999 0.066742 0.350011  
2002-11-26 08:40:26 51°16.603 2°53.03 -999 0.066742 0.350011  
2002-11-26 08:40:31 51°16.621 2°53.016 -999 0.066742 0.350011  
2002-11-26 08:40:36 51°16.638 2°53.001 -999 0.066742 0.350016  
2002-11-26 08:40:41 51°16.655 2°52.987 -999 0.066742 0.350016  
2002-11-26 08:40:46 51°16.672 2°52.973 -999 0.066742 0.350021  
2002-11-26 08:40:51 51°16.689 2°52.958 -999 0.066742 0.350021  
2002-11-26 08:40:56 51°16.707 2°52.944 -999 0.066742 0.350027  
2002-11-26 08:41:00 51°16.721 2°52.932 -999 0.066742 0.350027  
2002-11-26 08:41:06 51°16.741 2°52.915 -999 0.066742 0.350021  
2002-11-26 08:41:11 51°16.758 2°52.901 -999 0.066742 0.350027  
2002-11-26 08:41:16 51°16.775 2°52.887 -999 0.066742 0.350027  
2002-11-26 08:41:20 51°16.789 2°52.875 -999 0.066742 0.350032  
2002-11-26 08:41:26 51°16.809 2°52.858 -999 0.066742 0.350032  
2002-11-26 08:41:31 51°16.826 2°52.844 -999 0.066742 0.350032  
2002-11-26 08:41:36 51°16.843 2°52.83 -999 0.066742 0.350032  
2002-11-26 08:41:41 51°16.86 2°52.816 -999 0.066742 0.350032  
2002-11-26 08:41:46 51°16.877 2°52.802 -999 0.066742 0.350032  
2002-11-26 08:41:51 51°16.894 2°52.787 -999 0.066742 0.350037  
2002-11-26 08:41:56 51°16.911 2°52.773 -999 0.066742 0.350037  
2002-11-26 08:42:00 51°16.924 2°52.762 -999 0.066742 0.350037  
2002-11-26 08:42:06 51°16.945 2°52.745 -999 0.066742 0.350043  
2002-11-26 08:42:11 51°16.962 2°52.731 -999 0.066742 0.350037  
2002-11-26 08:42:16 51°16.979 2°52.717 -999 0.066742 0.350037  
2002-11-26 08:42:20 51°16.993 2°52.705 -999 0.066742 0.350043  
2002-11-26 08:42:26 51°17.013 2°52.688 -999 0.066742 0.350048  
2002-11-26 08:42:31 51°17.031 2°52.674 -999 0.066742 0.350048  
2002-11-26 08:42:36 51°17.049 2°52.659 -999 0.066742 0.350043  
2002-11-26 08:42:41 51°17.066 2°52.645 -999 0.066742 0.350053  
2002-11-26 08:42:46 51°17.083 2°52.63 -999 0.066742 0.350053  
2002-11-26 08:42:51 51°17.101 2°52.616 -999 0.066742 0.350053  
2002-11-26 08:42:56 51°17.118 2°52.602 -999 0.066742 0.350048  
2002-11-26 08:43:00 51°17.132 2°52.591 -999 0.066742 0.350048  
2002-11-26 08:43:06 51°17.152 2°52.574 -999 0.066742 0.350053  
2002-11-26 08:43:11 51°17.169 2°52.56 -999 0.066742 0.350059  
2002-11-26 08:43:16 51°17.187 2°52.545 -999 0.066742 0.350059  
2002-11-26 08:43:20 51°17.2 2°52.534 -999 0.066742 0.350069  
2002-11-26 08:43:26 51°17.221 2°52.516 -999 0.066742 0.350059  
2002-11-26 08:43:31 51°17.238 2°52.502 -999 0.066742 0.350059  
2002-11-26 08:43:36 51°17.256 2°52.488 -999 0.066742 0.350064  
2002-11-26 08:43:40 51°17.269 2°52.476 -999 0.066742 0.350064  
2002-11-26 08:43:46 51°17.29 2°52.458 -999 0.066742 0.350064  
2002-11-26 08:43:51 51°17.307 2°52.443 -999 0.066742 0.350069  
2002-11-26 08:43:56 51°17.325 2°52.429 -999 0.066742 0.350064  
2002-11-26 08:44:00 51°17.339 2°52.418 -999 0.066742 0.350064  
2002-11-26 08:44:06 51°17.36 2°52.401 -999 0.066742 0.350069  
2002-11-26 08:44:11 51°17.377 2°52.386 -999 0.066846 0.350637  
2002-11-26 08:44:16 51°17.395 2°52.372 -999 0.066742 0.350075  
2002-11-26 08:44:20 51°17.408 2°52.36 -999 0.066742 0.350075  
2002-11-26 08:44:26 51°17.429 2°52.342 -999 0.066742 0.350085  
2002-11-26 08:44:31 51°17.445 2°52.324 -999 0.066742 0.350085  
2002-11-26 08:44:36 51°17.461 2°52.305 -999 0.066846 0.350647  
2002-11-26 08:44:40 51°17.473 2°52.29 -999 0.066742 0.350096  
2002-11-26 08:44:46 51°17.491 2°52.266 -999 0.066742 0.350091  
2002-11-26 08:44:51 51°17.506 2°52.245 -999 0.066742 0.350091  
2002-11-26 08:44:56 51°17.521 2°52.225 -999 0.066742 0.35008  
2002-11-26 08:45:00 51°17.532 2°52.208 -999 0.066742 0.35008  
2002-11-26 08:45:06 51°17.55 2°52.183 -999 0.066742 0.350085  
2002-11-26 08:45:11 51°17.565 2°52.161 -999 0.066742 0.35008  
2002-11-26 08:45:16 51°17.58 2°52.141 -999 0.066742 0.350085  
2002-11-26 08:45:20 51°17.591 2°52.124 -999 0.066742 0.350085  
2002-11-26 08:45:26 51°17.609 2°52.099 -999 0.066742 0.350096  
2002-11-26 08:45:31 51°17.623 2°52.078 -999 0.066742 0.350096  
2002-11-26 08:45:36 51°17.637 2°52.056 -999 0.066742 0.350096  
2002-11-26 08:45:40 51°17.647 2°52.037 -999 0.066742 0.350107  
2002-11-26 08:45:46 51°17.662 2°52.008 -999 0.066742 0.350117  
2002-11-26 08:45:51 51°17.673 2°51.982 -999 0.066742 0.350112  
2002-11-26 08:45:56 51°17.684 2°51.956 -999 0.066742 0.350117  
2002-11-26 08:46:01 51°17.695 2°51.93 -999 0.066742 0.350117  
2002-11-26 08:46:06 51°17.705 2°51.903 -999 0.066742 0.350107  
2002-11-26 08:46:11 51°17.716 2°51.877 -999 0.066742 0.350101  
2002-11-26 08:46:16 51°17.726 2°51.85 -999 0.066742 0.350101  
2002-11-26 08:46:21 51°17.737 2°51.824 -999 0.066742 0.350096  
2002-11-26 08:46:26 51°17.747 2°51.797 -999 0.066742 0.350101  
2002-11-26 08:46:31 51°17.758 2°51.77 -999 0.066742 0.350101  
2002-11-26 08:46:36 51°17.768 2°51.744 -999 0.066742 0.350101  
2002-11-26 08:46:40 51°17.777 2°51.723 -999 0.066742 0.350107  
2002-11-26 08:46:46 51°17.789 2°51.691 -999 0.066742 0.350112  
2002-11-26 08:46:51 51°17.8 2°51.664 -999 0.066846 0.350679  
2002-11-26 08:46:56 51°17.811 2°51.638 -999 0.066742 0.350128  
2002-11-26 08:47:00 51°17.819 2°51.617 -999 0.066742 0.350128  
2002-11-26 08:47:06 51°17.832 2°51.585 -999 0.066742 0.350133  
2002-11-26 08:47:11 51°17.843 2°51.559 -999 0.066742 0.350123  
2002-11-26 08:47:16 51°17.854 2°51.532 -999 0.066742 0.350123  
2002-11-26 08:47:20 51°17.862 2°51.511 -999 0.066742 0.350123  
2002-11-26 08:47:26 51°17.876 2°51.479 -999 0.066742 0.350128  
2002-11-26 08:47:31 51°17.886 2°51.453 -999 0.066742 0.350128  
2002-11-26 08:47:36 51°17.897 2°51.426 -999 0.066742 0.350128  
2002-11-26 08:47:40 51°17.906 2°51.405 -999 0.066846 0.350685  
2002-11-26 08:47:46 51°17.919 2°51.374 -999 0.066742 0.350128  
2002-11-26 08:47:51 51°17.93 2°51.347 -999 0.066742 0.350133  
2002-11-26 08:47:56 51°17.941 2°51.321 -999 0.066742 0.350133  
2002-11-26 08:48:00 51°17.949 2°51.299 -999 0.066742 0.350133  
2002-11-26 08:48:06 51°17.963 2°51.267 -999 0.066742 0.350139  
2002-11-26 08:48:11 51°17.973 2°51.24 -999 0.066742 0.350144  
2002-11-26 08:48:16 51°17.984 2°51.213 -999 0.066742 0.350139  
2002-11-26 08:48:20 51°17.993 2°51.193 -999 0.066742 0.350144  
2002-11-26 08:48:26 51°18.006 2°51.163 -999 0.066742 0.350149  
2002-11-26 08:48:31 51°18.017 2°51.136 -999 0.066742 0.350149  
2002-11-26 08:48:36 51°18.028 2°51.11 -999 0.066742 0.350144  
2002-11-26 08:48:40 51°18.036 2°51.088 -999 0.066742 0.350149  
2002-11-26 08:48:46 51°18.05 2°51.056 30.54425 0.066742 0.350144  
2002-11-26 08:48:51 51°18.061 2°51.031 31.233105 0.066742 0.350155  
2002-11-26 08:48:56 51°18.072 2°51.006 31.603175 0.066742 0.350155  
2002-11-26 08:49:00 51°18.08 2°50.985 31.603175 0.066742 0.350155  
2002-11-26 08:49:06 51°18.094 2°50.954 30.165932 0.066742 0.350149  
2002-11-26 08:49:11 51°18.105 2°50.927 30.347143 0.066742 0.350155  
2002-11-26 08:49:16 51°18.116 2°50.9 29.915047 0.066742 0.350155  
2002-11-26 08:49:20 51°18.125 2°50.878 31.12356 0.066742 0.350155  
2002-11-26 08:49:26 51°18.138 2°50.846 30.525085 0.066742 0.35016  
2002-11-26 08:49:31 51°18.149 2°50.82 30.525085 0.066742 0.35016  
2002-11-26 08:49:36 51°18.159 2°50.793 31.210084 0.066742 0.350165  
2002-11-26 08:49:41 51°18.17 2°50.767 30.317668 0.066742 0.350165  
2002-11-26 08:49:46 51°18.181 2°50.741 30.951508 0.066846 0.350727  
2002-11-26 08:49:51 51°18.192 2°50.715 30.8709 0.066742 0.350165  
2002-11-26 08:49:56 51°18.203 2°50.688 32.002684 0.066742 0.350171  
2002-11-26 08:50:00 51°18.212 2°50.667 32.002684 0.066742 0.350171  
2002-11-26 08:50:06 51°18.225 2°50.635 31.668345 0.066742 0.350165  
2002-11-26 08:50:11 51°18.237 2°50.609 30.466507 0.066742 0.350171  
2002-11-26 08:50:16 51°18.248 2°50.582 30.474257 0.066742 0.350171  
2002-11-26 08:50:20 51°18.256 2°50.56 31.036521 0.066742 0.350171  
2002-11-26 08:50:26 51°18.27 2°50.528 30.664599 0.066742 0.350171  
2002-11-26 08:50:31 51°18.281 2°50.502 30.664599 0.066742 0.350171  
2002-11-26 08:50:36 51°18.292 2°50.476 29.166029 0.066742 0.350176  
2002-11-26 08:50:40 51°18.301 2°50.455 30.991292 0.066742 0.350176  
2002-11-26 08:50:46 51°18.314 2°50.424 28.938639 0.066742 0.350181  
2002-11-26 08:50:51 51°18.325 2°50.398 31.183581 0.066742 0.350181  
2002-11-26 08:50:56 51°18.336 2°50.371 29.838636 0.066742 0.350187  
2002-11-26 08:51:00 51°18.345 2°50.35 29.838636 0.066742 0.350187  
2002-11-26 08:51:06 51°18.359 2°50.318 29.280252 0.066742 0.350187  
2002-11-26 08:51:11 51°18.37 2°50.292 30.52505 0.066742 0.350187  
2002-11-26 08:51:16 51°18.381 2°50.266 30.040311 0.066742 0.350187  
2002-11-26 08:51:20 51°18.39 2°50.245 29.988204 0.066742 0.350187  
2002-11-26 08:51:26 51°18.403 2°50.214 29.750218 0.066742 0.350192  
2002-11-26 08:51:31 51°18.414 2°50.187 29.750218 0.066742 0.350192  
2002-11-26 08:51:36 51°18.425 2°50.161 30.964365 0.066742 0.350192  
2002-11-26 08:51:40 51°18.434 2°50.14 30.587924 0.066742 0.350197  
2002-11-26 08:51:46 51°18.447 2°50.11 31.552472 0.066846 0.350765  
2002-11-26 08:51:51 51°18.459 2°50.084 32.095397 0.066742 0.350197  
2002-11-26 08:51:56 51°18.47 2°50.058 30.9621 0.066742 0.350197  
2002-11-26 08:52:01 51°18.481 2°50.031 30.9621 0.066742 0.350197  
2002-11-26 08:52:06 51°18.492 2°50.005 29.445965 0.066742 0.350203  
2002-11-26 08:52:11 51°18.504 2°49.979 31.287282 0.066742 0.350203  
2002-11-26 08:52:16 51°18.515 2°49.953 30.559733 0.066742 0.350208  
2002-11-26 08:52:20 51°18.524 2°49.932 30.42336 0.066742 0.350208  
2002-11-26 08:52:26 51°18.537 2°49.9 29.755847 0.066846 0.35077  
2002-11-26 08:52:31 51°18.548 2°49.874 29.755847 0.066846 0.35077  
2002-11-26 08:52:36 51°18.56 2°49.848 30.605744 0.066742 0.350219  
2002-11-26 08:52:41 51°18.571 2°49.822 29.73248 0.066742 0.350213  
2002-11-26 08:52:46 51°18.582 2°49.796 31.586865 0.066742 0.350213  
2002-11-26 08:52:51 51°18.593 2°49.771 30.610084 0.066742 0.350219  
2002-11-26 08:52:56 51°18.604 2°49.745 28.918417 0.066742 0.350219  
2002-11-26 08:53:00 51°18.613 2°49.723 28.918417 0.066742 0.350219  
2002-11-26 08:53:06 51°18.626 2°49.692 29.820494 0.066742 0.350219  
2002-11-26 08:53:11 51°18.638 2°49.665 30.284737 0.066742 0.350219  
2002-11-26 08:53:16 51°18.649 2°49.639 29.852956 0.066742 0.350224  
2002-11-26 08:53:20 51°18.658 2°49.619 29.776163 0.066742 0.350224  
2002-11-26 08:53:26 51°18.671 2°49.587 30.637662 0.066742 0.350224  
2002-11-26 08:53:31 51°18.682 2°49.561 30.637662 0.066742 0.350224  
2002-11-26 08:53:36 51°18.693 2°49.534 31.939758 0.066846 0.350791  
2002-11-26 08:53:41 51°18.705 2°49.509 30.021617 0.066742 0.350229  
2002-11-26 08:53:46 51°18.715 2°49.483 30.259915 0.066742 0.350235  
2002-11-26 08:53:51 51°18.726 2°49.457 29.479441 0.066742 0.350235  
2002-11-26 08:53:56 51°18.738 2°49.431 29.356339 0.066742 0.350235  
2002-11-26 08:54:00 51°18.747 2°49.41 29.356339 0.066742 0.350235  
2002-11-26 08:54:06 51°18.76 2°49.378 30.113348 0.066742 0.35024  
2002-11-26 08:54:11 51°18.771 2°49.352 30.11969 0.066742 0.350235  
2002-11-26 08:54:16 51°18.783 2°49.326 30.40311 0.066742 0.35024  
2002-11-26 08:54:20 51°18.792 2°49.305 31.243069 0.066742 0.35024  
2002-11-26 08:54:26 51°18.806 2°49.273 29.951564 0.066742 0.350245  
2002-11-26 08:54:31 51°18.817 2°49.246 29.951564 0.066742 0.350245  
2002-11-26 08:54:36 51°18.828 2°49.22 31.426243 0.066742 0.350245  
2002-11-26 08:54:40 51°18.837 2°49.199 29.745899 0.066742 0.350245  
2002-11-26 08:54:46 51°18.851 2°49.167 30.443498 0.066742 0.350251  
2002-11-26 08:54:51 51°18.862 2°49.141 29.605534 0.066742 0.350256  
2002-11-26 08:54:56 51°18.874 2°49.114 31.778977 0.066846 0.350813  
2002-11-26 08:55:00 51°18.883 2°49.093 31.778977 0.066846 0.350813  
2002-11-26 08:55:06 51°18.896 2°49.061 30.8373 0.066742 0.350256  
2002-11-26 08:55:11 51°18.908 2°49.035 31.614265 0.066742 0.350261  
2002-11-26 08:55:16 51°18.919 2°49.008 29.748625 0.066742 0.350261  
2002-11-26 08:55:20 51°18.928 2°48.987 30.216298 0.066742 0.350261  
2002-11-26 08:55:26 51°18.942 2°48.954 29.88717 0.066742 0.350261  
2002-11-26 08:55:31 51°18.954 2°48.928 29.88717 0.066742 0.350261  
2002-11-26 08:55:36 51°18.965 2°48.901 29.203517 0.066742 0.350261  
2002-11-26 08:55:40 51°18.974 2°48.88 30.242366 0.066742 0.350261  
2002-11-26 08:55:46 51°18.988 2°48.848 30.106513 0.066742 0.350267  
2002-11-26 08:55:51 51°18.999 2°48.821 29.430111 0.066742 0.350267  
2002-11-26 08:55:56 51°19.011 2°48.795 30.865213 0.066742 0.350272  
2002-11-26 08:56:00 51°19.02 2°48.773 30.865213 0.066742 0.350272  
2002-11-26 08:56:06 51°19.034 2°48.741 30.787448 0.066742 0.350267  
2002-11-26 08:56:11 51°19.045 2°48.714 30.925542 0.066742 0.350277  
2002-11-26 08:56:16 51°19.056 2°48.687 31.342044 0.066742 0.350277  
2002-11-26 08:56:20 51°19.065 2°48.666 28.768504 0.066742 0.350283  
2002-11-26 08:56:26 51°19.079 2°48.635 29.493615 0.066742 0.350283  
2002-11-26 08:56:31 51°19.09 2°48.608 29.493615 0.066742 0.350283  
2002-11-26 08:56:36 51°19.101 2°48.582 29.374842 0.066846 0.350845  
2002-11-26 08:56:40 51°19.11 2°48.561 29.669884 0.066742 0.350283  
2002-11-26 08:56:46 51°19.123 2°48.529 28.743501 0.066846 0.350845  
2002-11-26 08:56:51 51°19.135 2°48.502 28.940857 0.066742 0.350288  
2002-11-26 08:56:56 51°19.146 2°48.475 28.972877 0.066742 0.350288  
2002-11-26 08:57:00 51°19.155 2°48.454 28.972877 0.066742 0.350288  
2002-11-26 08:57:06 51°19.168 2°48.423 28.237245 0.066846 0.350845  
2002-11-26 08:57:11 51°19.179 2°48.396 29.334094 0.066742 0.350293  
2002-11-26 08:57:16 51°19.19 2°48.37 28.892283 0.066742 0.350293  
2002-11-26 08:57:20 51°19.199 2°48.349 29.407638 0.066846 0.35085  
2002-11-26 08:57:26 51°19.212 2°48.317 29.922041 0.066742 0.350299  
2002-11-26 08:57:31 51°19.223 2°48.291 29.922041 0.066742 0.350299  
2002-11-26 08:57:36 51°19.234 2°48.265 30.923277 0.066846 0.350856  
2002-11-26 08:57:40 51°19.244 2°48.244 28.682771 0.066742 0.350293  
2002-11-26 08:57:46 51°19.257 2°48.213 29.066925 0.066742 0.350299  
2002-11-26 08:57:51 51°19.268 2°48.186 29.843975 0.066846 0.350861  
2002-11-26 08:57:56 51°19.279 2°48.159 28.36486 0.066742 0.350299  
2002-11-26 08:58:00 51°19.288 2°48.138 28.36486 0.066742 0.350299  
2002-11-26 08:58:06 51°19.301 2°48.107 29.243836 0.066742 0.350309  
2002-11-26 08:58:11 51°19.312 2°48.08 29.248576 0.066742 0.350304  
2002-11-26 08:58:16 51°19.323 2°48.054 28.844931 0.066742 0.350299  
2002-11-26 08:58:20 51°19.332 2°48.032 28.78059 0.066742 0.350309  
2002-11-26 08:58:26 51°19.346 2°48.001 29.04438 0.066742 0.350309  
2002-11-26 08:58:31 51°19.357 2°47.975 29.04438 0.066742 0.350309  
2002-11-26 08:58:36 51°19.368 2°47.948 27.713681 0.066742 0.35032  
2002-11-26 08:58:40 51°19.377 2°47.927 29.133378 0.066742 0.350309  
2002-11-26 08:58:46 51°19.39 2°47.895 28.190851 0.066742 0.35032  
2002-11-26 08:58:51 51°19.401 2°47.869 29.164424 0.066846 0.350877  
2002-11-26 08:58:56 51°19.412 2°47.842 30.065417 0.066846 0.350877  
2002-11-26 08:59:00 51°19.421 2°47.822 30.065417 0.066846 0.350877  
2002-11-26 08:59:06 51°19.435 2°47.79 29.323343 0.066742 0.350325  
2002-11-26 08:59:11 51°19.446 2°47.764 30.674533 0.066742 0.350325  
2002-11-26 08:59:16 51°19.457 2°47.738 30.789578 0.066742 0.35032  
2002-11-26 08:59:20 51°19.466 2°47.717 30.517901 0.066742 0.350325  
2002-11-26 08:59:26 51°19.479 2°47.685 29.986263 0.066742 0.350325  
2002-11-26 08:59:31 51°19.49 2°47.659 29.986263 0.066742 0.350325  
2002-11-26 08:59:36 51°19.502 2°47.633 29.745191 0.066742 0.350325  
2002-11-26 08:59:40 51°19.511 2°47.612 30.479657 0.066742 0.350325  
2002-11-26 08:59:46 51°19.524 2°47.581 30.461597 0.066742 0.350331  
2002-11-26 08:59:51 51°19.536 2°47.554 30.150051 0.066742 0.350331  
2002-11-26 08:59:56 51°19.547 2°47.528 30.070141 0.066742 0.350336  
2002-11-26 09:00:00 51°19.556 2°47.507 30.070141 0.066742 0.350336  
2002-11-26 09:00:06 51°19.569 2°47.476 29.92808 0.066846 0.350893  
2002-11-26 09:00:11 51°19.581 2°47.45 29.403086 0.066742 0.350341  
2002-11-26 09:00:16 51°19.592 2°47.424 28.992869 0.066742 0.350341  
2002-11-26 09:00:20 51°19.601 2°47.403 30.152869 0.066742 0.350341  
2002-11-26 09:00:26 51°19.615 2°47.372 28.704599 0.066742 0.350347  
2002-11-26 09:00:31 51°19.626 2°47.346 28.704599 0.066742 0.350347  
2002-11-26 09:00:36 51°19.637 2°47.32 30.224003 0.066742 0.350341  
2002-11-26 09:00:40 51°19.646 2°47.299 31.534837 0.066742 0.350347  
2002-11-26 09:00:46 51°19.66 2°47.268 29.592374 0.066742 0.350352  
2002-11-26 09:00:51 51°19.671 2°47.241 29.788301 0.066742 0.350352  
2002-11-26 09:00:56 51°19.683 2°47.215 28.592734 0.066846 0.350904  
2002-11-26 09:01:01 51°19.693 2°47.189 28.592734 0.066846 0.350904  
2002-11-26 09:01:06 51°19.704 2°47.163 29.914022 0.066742 0.350341  
2002-11-26 09:01:11 51°19.714 2°47.135 30.19888 0.066742 0.350357  
2002-11-26 09:01:16 51°19.722 2°47.106 31.400646 0.066846 0.350925  
2002-11-26 09:01:20 51°19.729 2°47.084 28.223807 0.066742 0.350373  
2002-11-26 09:01:26 51°19.739 2°47.049 28.775354 0.066742 0.350368  
2002-11-26 09:01:31 51°19.746 2°47.019 28.775354 0.066742 0.350368  
2002-11-26 09:01:36 51°19.753 2°46.989 30.080222 0.066846 0.35092  
2002-11-26 09:01:40 51°19.759 2°46.966 29.107211 0.066742 0.350363  
2002-11-26 09:01:46 51°19.767 2°46.93 29.334877 0.066742 0.350363  
2002-11-26 09:01:51 51°19.774 2°46.901 29.65716 0.066846 0.35092  
2002-11-26 09:01:56 51°19.781 2°46.871 29.586272 0.066846 0.35092  
2002-11-26 09:02:00 51°19.787 2°46.847 29.586272 0.066846 0.35092  
2002-11-26 09:02:06 51°19.795 2°46.811 29.743315 0.066846 0.350925  
2002-11-26 09:02:11 51°19.803 2°46.782 28.678318 0.066846 0.350925  
2002-11-26 09:02:16 51°19.81 2°46.752 29.880986 0.066742 0.350373  
2002-11-26 09:02:20 51°19.815 2°46.728 29.832624 0.066742 0.350373  
2002-11-26 09:02:26 51°19.824 2°46.693 29.389712 0.066846 0.350941  
2002-11-26 09:02:31 51°19.831 2°46.663 29.389712 0.066846 0.350941  
2002-11-26 09:02:36 51°19.839 2°46.634 29.071819 0.066742 0.350379  
2002-11-26 09:02:41 51°19.846 2°46.604 31.267885 0.066846 0.350946  
2002-11-26 09:02:46 51°19.853 2°46.574 30.952623 0.066742 0.350379  
2002-11-26 09:02:51 51°19.86 2°46.544 30.50332 0.066742 0.350384  
2002-11-26 09:02:56 51°19.867 2°46.515 28.052583 0.066742 0.350379  
2002-11-26 09:03:01 51°19.873 2°46.485 28.052583 0.066742 0.350379  
2002-11-26 09:03:06 51°19.88 2°46.455 30.067497 0.066742 0.350389  
2002-11-26 09:03:11 51°19.886 2°46.424 29.164602 0.066846 0.350946  
2002-11-26 09:03:16 51°19.892 2°46.394 28.814147 0.066742 0.350384  
2002-11-26 09:03:20 51°19.897 2°46.37 28.054031 0.066846 0.350957  
2002-11-26 09:03:26 51°19.905 2°46.333 29.016538 0.066846 0.350952  
2002-11-26 09:03:31 51°19.91 2°46.302 29.016538 0.066846 0.350952  
2002-11-26 09:03:36 51°19.917 2°46.272 28.57749 0.066742 0.350389  
2002-11-26 09:03:40 51°19.922 2°46.248 29.324874 0.066742 0.350395  
2002-11-26 09:03:46 51°19.93 2°46.212 28.868933 0.066846 0.350952  
2002-11-26 09:03:51 51°19.935 2°46.181 29.404829 0.066742 0.3504  
2002-11-26 09:03:56 51°19.942 2°46.151 29.54294 0.066846 0.350957  
2002-11-26 09:04:01 51°19.948 2°46.121 29.54294 0.066846 0.350957  
2002-11-26 09:04:06 51°19.954 2°46.091 27.96269 0.066846 0.350957  
2002-11-26 09:04:11 51°19.96 2°46.06 29.583966 0.066846 0.350968  
2002-11-26 09:04:16 51°19.967 2°46.03 29.577934 0.066846 0.350957  
2002-11-26 09:04:20 51°19.971 2°46.005 29.060137 0.066846 0.350962  
2002-11-26 09:04:26 51°19.98 2°45.968 28.78916 0.066742 0.350405  
2002-11-26 09:04:31 51°19.986 2°45.938 28.78916 0.066742 0.350405  
2002-11-26 09:04:36 51°19.992 2°45.907 29.297064 0.066846 0.350968  
2002-11-26 09:04:40 51°19.997 2°45.882 28.654543 0.066742 0.350405  
2002-11-26 09:04:46 51°20.005 2°45.846 29.293609 0.066846 0.350973  
2002-11-26 09:04:51 51°20.011 2°45.815 29.327829 0.066742 0.350416  
2002-11-26 09:04:56 51°20.018 2°45.784 29.330463 0.066846 0.350973  
2002-11-26 09:05:00 51°20.023 2°45.759 29.330463 0.066846 0.350973  
2002-11-26 09:05:06 51°20.03 2°45.723 30.229386 0.066742 0.350416  
2002-11-26 09:05:11 51°20.036 2°45.692 28.862629 0.066846 0.350979  
2002-11-26 09:05:16 51°20.043 2°45.662 30.261743 0.066742 0.350416  
2002-11-26 09:05:20 51°20.048 2°45.637 29.725185 0.066846 0.350979  
2002-11-26 09:05:26 51°20.055 2°45.6 29.130237 0.066846 0.350984  
2002-11-26 09:05:31 51°20.061 2°45.57 29.130237 0.066846 0.350984  
2002-11-26 09:05:36 51°20.068 2°45.539 28.515186 0.066846 0.350989  
2002-11-26 09:05:40 51°20.073 2°45.514 29.978217 0.066846 0.350989  
2002-11-26 09:05:46 51°20.081 2°45.477 29.166279 0.066846 0.350984  
2002-11-26 09:05:51 51°20.087 2°45.446 30.057519 0.066846 0.350989  
2002-11-26 09:05:56 51°20.094 2°45.416 30.068307 0.066742 0.350432  
2002-11-26 09:06:00 51°20.098 2°45.391 30.068307 0.066742 0.350432  
2002-11-26 09:06:06 51°20.106 2°45.354 29.008887 0.066846 0.350995  
2002-11-26 09:06:11 51°20.112 2°45.324 29.400632 0.066742 0.350438  
2002-11-26 09:06:16 51°20.118 2°45.294 30.235753 0.066846 0.351  
2002-11-26 09:06:20 51°20.123 2°45.269 29.513647 0.066846 0.351  
2002-11-26 09:06:26 51°20.13 2°45.233 28.95703 0.066742 0.350438  
2002-11-26 09:06:31 51°20.137 2°45.202 28.95703 0.066742 0.350438  
2002-11-26 09:06:36 51°20.143 2°45.172 28.843283 0.066742 0.350443  
2002-11-26 09:06:41 51°20.149 2°45.141 28.315334 0.066742 0.350443  
2002-11-26 09:06:46 51°20.155 2°45.111 29.28214 0.066846 0.351005  
2002-11-26 09:06:51 51°20.161 2°45.08 29.260051 0.066846 0.351005  
2002-11-26 09:06:56 51°20.167 2°45.05 28.389413 0.066846 0.351005  
2002-11-26 09:07:00 51°20.172 2°45.025 28.389413 0.066846 0.351005  
2002-11-26 09:07:06 51°20.179 2°44.989 28.412336 0.066846 0.351011  
2002-11-26 09:07:11 51°20.184 2°44.958 28.853995 0.066846 0.351016  
2002-11-26 09:07:16 51°20.19 2°44.928 28.737007 0.066846 0.351016  
2002-11-26 09:07:20 51°20.195 2°44.904 28.86528 0.066846 0.351011  
2002-11-26 09:07:26 51°20.202 2°44.867 29.199523 0.066846 0.351011  
2002-11-26 09:07:31 51°20.209 2°44.837 29.199523 0.066846 0.351011  
2002-11-26 09:07:36 51°20.215 2°44.807 29.191427 0.066846 0.351016  
2002-11-26 09:07:40 51°20.22 2°44.782 29.188931 0.066846 0.351021  
2002-11-26 09:07:46 51°20.227 2°44.747 29.819114 0.066846 0.351016  
2002-11-26 09:07:51 51°20.233 2°44.716 29.930164 0.066846 0.351027  
2002-11-26 09:07:56 51°20.24 2°44.686 28.008357 0.066846 0.351032  
2002-11-26 09:08:01 51°20.246 2°44.656 28.008357 0.066846 0.351032  
2002-11-26 09:08:06 51°20.252 2°44.626 27.636052 0.066846 0.351027  
2002-11-26 09:08:11 51°20.258 2°44.596 28.622818 0.066742 0.35047  
2002-11-26 09:08:16 51°20.264 2°44.566 28.603015 0.066846 0.351037  
2002-11-26 09:08:20 51°20.27 2°44.542 29.994415 0.066742 0.350475  
2002-11-26 09:08:26 51°20.277 2°44.506 28.954203 0.066846 0.351043  
2002-11-26 09:08:31 51°20.283 2°44.476 28.954203 0.066846 0.351043  
2002-11-26 09:08:36 51°20.289 2°44.446 29.136019 0.066846 0.351043  
2002-11-26 09:08:40 51°20.294 2°44.422 27.891599 0.066846 0.351037  
2002-11-26 09:08:46 51°20.301 2°44.385 28.640209 0.066846 0.351048  
2002-11-26 09:08:51 51°20.306 2°44.355 30.033363 0.066846 0.351048  
2002-11-26 09:08:56 51°20.311 2°44.324 28.986897 0.066846 0.351053  
2002-11-26 09:09:00 51°20.315 2°44.3 28.986897 0.066846 0.351053  
2002-11-26 09:09:06 51°20.32 2°44.263 28.93574 0.066742 0.350491  
2002-11-26 09:09:11 51°20.325 2°44.231 28.683489 0.066846 0.351048  
2002-11-26 09:09:16 51°20.33 2°44.2 29.571192 0.066846 0.351043  
2002-11-26 09:09:20 51°20.333 2°44.175 29.401699 0.066846 0.351048  
2002-11-26 09:09:26 51°20.338 2°44.139 28.613079 0.066846 0.351053  
2002-11-26 09:09:31 51°20.342 2°44.108 28.613079 0.066846 0.351053  
2002-11-26 09:09:36 51°20.347 2°44.077 28.18279 0.066846 0.351048  
2002-11-26 09:09:41 51°20.351 2°44.046 29.235603 0.066846 0.351053  
2002-11-26 09:09:46 51°20.356 2°44.015 29.781861 0.066846 0.351048  
2002-11-26 09:09:51 51°20.36 2°43.984 31.137987 0.066846 0.351059  
2002-11-26 09:09:56 51°20.364 2°43.953 28.74429 0.066846 0.351064  
2002-11-26 09:10:00 51°20.368 2°43.928 28.74429 0.066846 0.351064  
2002-11-26 09:10:06 51°20.373 2°43.891 29.890209 0.066846 0.351059  
2002-11-26 09:10:11 51°20.377 2°43.86 28.651921 0.066742 0.350507  
2002-11-26 09:10:16 51°20.382 2°43.829 28.740057 0.066846 0.351064  
2002-11-26 09:10:21 51°20.386 2°43.798 30.653965 0.066742 0.350507  
2002-11-26 09:10:26 51°20.391 2°43.767 29.996991 0.066846 0.351075  
2002-11-26 09:10:31 51°20.394 2°43.736 29.996991 0.066846 0.351075  
2002-11-26 09:10:36 51°20.399 2°43.705 28.776645 0.066846 0.351064  
2002-11-26 09:10:41 51°20.403 2°43.674 29.39142 0.066846 0.35107  
2002-11-26 09:10:46 51°20.408 2°43.643 29.852567 0.066846 0.351075  
2002-11-26 09:10:51 51°20.412 2°43.613 30.089351 0.066846 0.351075  
2002-11-26 09:10:56 51°20.416 2°43.582 30.003907 0.066846 0.35107  
2002-11-26 09:11:00 51°20.42 2°43.557 30.003907 0.066846 0.35107  
2002-11-26 09:11:06 51°20.425 2°43.52 30.061468 0.066846 0.351075  
2002-11-26 09:11:11 51°20.429 2°43.489 30.436797 0.066846 0.35108  
2002-11-26 09:11:16 51°20.434 2°43.458 30.728687 0.066846 0.351086  
2002-11-26 09:11:20 51°20.437 2°43.433 29.367584 0.066846 0.35108  
2002-11-26 09:11:26 51°20.443 2°43.395 29.574385 0.066846 0.351086  
2002-11-26 09:11:31 51°20.447 2°43.364 29.574385 0.066846 0.351086  
2002-11-26 09:11:36 51°20.452 2°43.333 30.351182 0.066846 0.35108  
2002-11-26 09:11:41 51°20.456 2°43.302 28.784283 0.066846 0.351091  
2002-11-26 09:11:46 51°20.46 2°43.271 28.313566 0.066846 0.351091  
2002-11-26 09:11:51 51°20.464 2°43.24 27.295283 0.066846 0.351091  
2002-11-26 09:11:56 51°20.469 2°43.209 26.854388 0.066846 0.351102  
2002-11-26 09:12:00 51°20.472 2°43.184 26.854388 0.066846 0.351102  
2002-11-26 09:12:06 51°20.478 2°43.147 27.248042 0.066846 0.351096  
2002-11-26 09:12:11 51°20.483 2°43.115 27.90887 0.066846 0.351096  
2002-11-26 09:12:16 51°20.487 2°43.084 26.854388 0.066846 0.351096  
2002-11-26 09:12:20 51°20.491 2°43.059 26.55557 0.066846 0.351107  
2002-11-26 09:12:26 51°20.496 2°43.022 27.138187 0.066846 0.351107  
2002-11-26 09:12:31 51°20.5 2°42.991 27.138187 0.066846 0.351107  
2002-11-26 09:12:36 51°20.505 2°42.96 27.223477 0.066846 0.351107  
2002-11-26 09:12:41 51°20.509 2°42.929 26.46736 0.066846 0.351102  
2002-11-26 09:12:46 51°20.513 2°42.898 29.905014 0.066846 0.351112  
2002-11-26 09:12:51 51°20.518 2°42.867 28.797191 0.066846 0.351107  
2002-11-26 09:12:56 51°20.522 2°42.835 28.204512 0.066846 0.351107  
2002-11-26 09:13:00 51°20.526 2°42.81 28.204512 0.066846 0.351107  
2002-11-26 09:13:06 51°20.531 2°42.773 28.130612 0.066846 0.351118  
2002-11-26 09:13:11 51°20.536 2°42.742 28.388403 0.066846 0.351112  
2002-11-26 09:13:16 51°20.541 2°42.71 28.329333 0.066846 0.351118  
2002-11-26 09:13:20 51°20.544 2°42.685 28.982784 0.066846 0.351118  
2002-11-26 09:13:26 51°20.549 2°42.648 28.423182 0.066846 0.351118  
2002-11-26 09:13:31 51°20.554 2°42.616 28.423182 0.066846 0.351118  
2002-11-26 09:13:36 51°20.558 2°42.585 27.862417 0.066846 0.351123  
2002-11-26 09:13:40 51°20.562 2°42.56 28.129056 0.066846 0.351128  
2002-11-26 09:13:46 51°20.568 2°42.523 28.666001 0.066846 0.351128  
2002-11-26 09:13:51 51°20.572 2°42.492 29.186612 0.066846 0.351123  
2002-11-26 09:13:56 51°20.577 2°42.46 28.608694 0.066846 0.351128  
2002-11-26 09:14:00 51°20.581 2°42.435 28.608694 0.066846 0.351128  
2002-11-26 09:14:06 51°20.586 2°42.398 28.697527 0.066846 0.351134  
2002-11-26 09:14:11 51°20.591 2°42.366 28.415471 0.066846 0.351134  
2002-11-26 09:14:16 51°20.595 2°42.335 28.30956 0.066846 0.351134  
2002-11-26 09:14:20 51°20.599 2°42.31 28.171078 0.066846 0.351139  
2002-11-26 09:14:26 51°20.604 2°42.272 27.788722 0.066846 0.351128  
2002-11-26 09:14:31 51°20.609 2°42.24 27.788722 0.066846 0.351128  
2002-11-26 09:14:36 51°20.613 2°42.209 28.29332 0.066846 0.351144  
2002-11-26 09:14:40 51°20.618 2°42.184 27.98897 0.066846 0.351139  
2002-11-26 09:14:46 51°20.623 2°42.146 29.02072 0.066846 0.351144  
2002-11-26 09:14:51 51°20.628 2°42.114 27.283466 0.066846 0.351144  
2002-11-26 09:14:56 51°20.632 2°42.082 28.732306 0.066846 0.35115  
2002-11-26 09:15:00 51°20.636 2°42.057 28.732306 0.066846 0.35115  
2002-11-26 09:15:06 51°20.641 2°42.02 28.791921 0.066846 0.351144  
2002-11-26 09:15:11 51°20.646 2°41.988 27.965518 0.066846 0.351155  
2002-11-26 09:15:16 51°20.651 2°41.956 27.946374 0.066846 0.351155  
2002-11-26 09:15:20 51°20.654 2°41.931 27.847822 0.066846 0.35115  
2002-11-26 09:15:26 51°20.66 2°41.893 28.504749 0.066846 0.351155  
2002-11-26 09:15:31 51°20.664 2°41.862 28.504749 0.066846 0.351155  
2002-11-26 09:15:36 51°20.669 2°41.831 28.85593 0.066846 0.351155  
2002-11-26 09:15:41 51°20.674 2°41.799 28.942933 0.066846 0.351155  
2002-11-26 09:15:46 51°20.678 2°41.767 28.504281 0.066846 0.351155  
2002-11-26 09:15:51 51°20.683 2°41.735 28.451749 0.066846 0.351161  
2002-11-26 09:15:56 51°20.688 2°41.704 29.856915 0.066846 0.351161  
2002-11-26 09:16:00 51°20.692 2°41.679 29.856915 0.066846 0.351161  
2002-11-26 09:16:06 51°20.698 2°41.641 28.471773 0.066846 0.351161  
2002-11-26 09:16:11 51°20.702 2°41.61 29.307391 0.066846 0.351171  
2002-11-26 09:16:16 51°20.707 2°41.579 28.486354 0.066846 0.351166  
2002-11-26 09:16:21 51°20.711 2°41.547 28.896293 0.066846 0.351171  
2002-11-26 09:16:26 51°20.716 2°41.516 29.076713 0.066846 0.351177  
2002-11-26 09:16:31 51°20.72 2°41.485 29.076713 0.066846 0.351177  
2002-11-26 09:16:36 51°20.724 2°41.454 27.570224 0.066846 0.351171  
2002-11-26 09:16:41 51°20.729 2°41.422 28.251475 0.066846 0.351166  
2002-11-26 09:16:46 51°20.733 2°41.39 28.344808 0.066846 0.351177  
2002-11-26 09:16:51 51°20.738 2°41.359 28.25895 0.066846 0.351171  
2002-11-26 09:16:56 51°20.742 2°41.328 29.688417 0.066846 0.351171  
2002-11-26 09:17:00 51°20.747 2°41.302 29.688417 0.066846 0.351171  
2002-11-26 09:17:06 51°20.752 2°41.265 27.867862 0.066846 0.351187  
2002-11-26 09:17:11 51°20.757 2°41.233 28.73471 0.066846 0.351187  
2002-11-26 09:17:16 51°20.762 2°41.202 28.779514 0.066846 0.351187  
2002-11-26 09:17:21 51°20.766 2°41.172 28.43572 0.066846 0.351193  
2002-11-26 09:17:26 51°20.771 2°41.141 27.773167 0.066846 0.351193  
2002-11-26 09:17:31 51°20.775 2°41.11 27.773167 0.066846 0.351193  
2002-11-26 09:17:36 51°20.78 2°41.079 27.794136 0.066846 0.351193  
2002-11-26 09:17:41 51°20.784 2°41.047 28.30025 0.066846 0.351198  
2002-11-26 09:17:46 51°20.789 2°41.015 27.826214 0.066846 0.351193  
2002-11-26 09:17:51 51°20.793 2°40.984 28.014878 0.066846 0.351193  
2002-11-26 09:17:56 51°20.798 2°40.953 28.883474 0.066846 0.351187  
2002-11-26 09:18:00 51°20.802 2°40.928 28.883474 0.066846 0.351187  
2002-11-26 09:18:06 51°20.807 2°40.891 27.316423 0.066846 0.351193  
2002-11-26 09:18:11 51°20.812 2°40.86 29.015036 0.066846 0.351198  
2002-11-26 09:18:16 51°20.817 2°40.829 28.160954 0.066846 0.351209  
2002-11-26 09:18:21 51°20.822 2°40.798 29.453927 0.066846 0.351198  
2002-11-26 09:18:26 51°20.826 2°40.767 29.040485 0.066846 0.351209  
2002-11-26 09:18:31 51°20.831 2°40.736 29.040485 0.066846 0.351209  
2002-11-26 09:18:36 51°20.835 2°40.704 27.740521 0.066846 0.351203  
2002-11-26 09:18:41 51°20.84 2°40.673 29.127917 0.066846 0.351209  
2002-11-26 09:18:46 51°20.844 2°40.641 29.917873 0.066846 0.351214  
2002-11-26 09:18:51 51°20.849 2°40.61 29.076284 0.066846 0.351214  
2002-11-26 09:18:56 51°20.854 2°40.579 28.191538 0.066846 0.351219  
2002-11-26 09:19:00 51°20.857 2°40.554 28.191538 0.066846 0.351219  
2002-11-26 09:19:06 51°20.864 2°40.517 29.82732 0.066846 0.351214  
2002-11-26 09:19:11 51°20.868 2°40.485 29.050705 0.066846 0.351219  
2002-11-26 09:19:16 51°20.873 2°40.454 27.691635 0.066846 0.351219  
2002-11-26 09:19:21 51°20.878 2°40.422 28.129418 0.066846 0.351219  
2002-11-26 09:19:26 51°20.883 2°40.391 28.073075 0.066846 0.351225  
2002-11-26 09:19:31 51°20.887 2°40.36 28.073075 0.066846 0.351225  
2002-11-26 09:19:36 51°20.892 2°40.329 27.953227 0.066846 0.351225  
2002-11-26 09:19:41 51°20.896 2°40.298 27.757682 0.066846 0.351225  
2002-11-26 09:19:46 51°20.901 2°40.266 28.193128 0.066846 0.35123  
2002-11-26 09:19:51 51°20.906 2°40.235 27.429448 0.066846 0.35123  
2002-11-26 09:19:56 51°20.911 2°40.204 27.545583 0.066846 0.35123  
2002-11-26 09:20:01 51°20.916 2°40.173 27.545583 0.066846 0.35123  
2002-11-26 09:20:06 51°20.92 2°40.142 27.584583 0.066846 0.351241  
2002-11-26 09:20:11 51°20.925 2°40.111 28.938603 0.066846 0.351241  
2002-11-26 09:20:16 51°20.93 2°40.08 28.727354 0.066846 0.35123  
2002-11-26 09:20:20 51°20.934 2°40.055 28.382131 0.066846 0.351241  
2002-11-26 09:20:26 51°20.94 2°40.018 26.952649 0.066846 0.35123  
2002-11-26 09:20:31 51°20.945 2°39.987 26.952649 0.066846 0.35123  
2002-11-26 09:20:36 51°20.949 2°39.955 27.909233 0.066846 0.351246  
2002-11-26 09:20:40 51°20.954 2°39.931 28.693973 0.066846 0.351236  
2002-11-26 09:20:46 51°20.959 2°39.894 28.203066 0.066846 0.351252  
2002-11-26 09:20:51 51°20.966 2°39.863 28.876777 0.066846 0.351236  
2002-11-26 09:20:56 51°20.97 2°39.832 28.125439 0.066846 0.351252  
2002-11-26 09:21:00 51°20.975 2°39.808 28.125439 0.066846 0.351252  
2002-11-26 09:21:06 51°20.982 2°39.771 28.241182 0.066846 0.351252  
2002-11-26 09:21:11 51°20.988 2°39.742 29.21457 0.066846 0.351246  
2002-11-26 09:21:16 51°20.994 2°39.711 28.480054 0.066846 0.351252  
2002-11-26 09:21:20 51°20.999 2°39.687 29.971298 0.066846 0.351252  
2002-11-26 09:21:26 51°21.006 2°39.65 28.543466 0.066846 0.351257  
2002-11-26 09:21:31 51°21.012 2°39.619 28.543466 0.066846 0.351257  
2002-11-26 09:21:36 51°21.018 2°39.589 28.603267 0.066846 0.351257  
2002-11-26 09:21:40 51°21.023 2°39.565 30.295317 0.066846 0.351262  
2002-11-26 09:21:46 51°21.03 2°39.528 29.019505 0.066846 0.351257  
2002-11-26 09:21:51 51°21.037 2°39.498 28.637012 0.066846 0.351257  
2002-11-26 09:21:56 51°21.044 2°39.468 29.750218 0.066846 0.351262  
2002-11-26 09:22:00 51°21.05 2°39.444 29.750218 0.066846 0.351262  
2002-11-26 09:22:06 51°21.058 2°39.408 28.757456 0.066846 0.351262  
2002-11-26 09:22:11 51°21.065 2°39.379 27.992268 0.066846 0.351262  
2002-11-26 09:22:16 51°21.073 2°39.349 28.025601 0.066846 0.351273  
2002-11-26 09:22:20 51°21.079 2°39.326 28.812355 0.066846 0.351268  
2002-11-26 09:22:26 51°21.088 2°39.29 29.145441 0.066846 0.351273  
2002-11-26 09:22:31 51°21.096 2°39.261 29.145441 0.066846 0.351273  
2002-11-26 09:22:36 51°21.103 2°39.231 28.026724 0.066846 0.351273  
2002-11-26 09:22:40 51°21.11 2°39.207 28.811817 0.066846 0.351278  
2002-11-26 09:22:46 51°21.12 2°39.172 28.700686 0.066846 0.351278  
2002-11-26 09:22:51 51°21.129 2°39.144 28.764989 0.066846 0.351268  
2002-11-26 09:22:56 51°21.139 2°39.116 28.378778 0.066846 0.351273  
2002-11-26 09:23:00 51°21.147 2°39.094 28.378778 0.066846 0.351273  
2002-11-26 09:23:06 51°21.16 2°39.062 28.818807 0.066846 0.351268  
2002-11-26 09:23:11 51°21.172 2°39.036 28.97184 0.066846 0.351278  
2002-11-26 09:23:16 51°21.183 2°39.011 29.196063 0.066846 0.351284  
2002-11-26 09:23:20 51°21.193 2°38.992 30.191242 0.066846 0.351278  
2002-11-26 09:23:26 51°21.209 2°38.963 28.813215 0.066846 0.351284  
2002-11-26 09:23:31 51°21.223 2°38.94 28.813215 0.066846 0.351284  
2002-11-26 09:23:36 51°21.237 2°38.918 30.721872 0.066846 0.351289  
2002-11-26 09:23:40 51°21.249 2°38.9 29.591735 0.066846 0.351295  
2002-11-26 09:23:46 51°21.266 2°38.874 29.564023 0.066846 0.351295  
2002-11-26 09:23:51 51°21.282 2°38.855 28.71185 0.066846 0.351295  
2002-11-26 09:23:56 51°21.297 2°38.835 28.719997 0.066846 0.351295  
2002-11-26 09:24:00 51°21.31 2°38.82 28.719997 0.066846 0.351295  
2002-11-26 09:24:06 51°21.329 2°38.799 30.173044 0.066846 0.351295  
2002-11-26 09:24:11 51°21.346 2°38.781 30.005848 0.066846 0.3513  
2002-11-26 09:24:16 51°21.363 2°38.765 28.070722 0.066846 0.351295  
2002-11-26 09:24:21 51°21.38 2°38.751 29.455206 0.066846 0.3513  
2002-11-26 09:24:26 51°21.398 2°38.738 29.369968 0.066846 0.351305  
2002-11-26 09:24:31 51°21.416 2°38.724 29.369968 0.066846 0.351305  
2002-11-26 09:24:36 51°21.434 2°38.712 29.72051 0.066846 0.3513  
2002-11-26 09:24:40 51°21.448 2°38.702 28.397487 0.066846 0.351305  
2002-11-26 09:24:46 51°21.47 2°38.687 29.084142 0.066846 0.351311  
2002-11-26 09:24:51 51°21.488 2°38.675 29.055993 0.066846 0.351311  
2002-11-26 09:24:56 51°21.506 2°38.663 28.788658 0.066846 0.351316  
2002-11-26 09:25:00 51°21.52 2°38.652 28.788658 0.066846 0.351316  
2002-11-26 09:25:06 51°21.542 2°38.638 29.868757 0.066846 0.351311  
2002-11-26 09:25:11 51°21.56 2°38.625 29.034302 0.066846 0.351321  
2002-11-26 09:25:16 51°21.578 2°38.613 27.934443 0.066846 0.351316  
2002-11-26 09:25:20 51°21.593 2°38.605 27.40498 0.066846 0.351316  
2002-11-26 09:25:26 51°21.615 2°38.593 26.333292 0.066846 0.351311  
2002-11-26 09:25:31 51°21.633 2°38.584 26.333292 0.066846 0.351311  
2002-11-26 09:25:36 51°21.652 2°38.575 26.982961 0.066846 0.351311  
2002-11-26 09:25:40 51°21.667 2°38.568 26.601334 0.066846 0.351316  
2002-11-26 09:25:46 51°21.69 2°38.558 27.979184 0.066846 0.351316  
2002-11-26 09:25:51 51°21.708 2°38.549 27.676496 0.066846 0.351321  
2002-11-26 09:25:56 51°21.727 2°38.541 27.081528 0.066846 0.351327  
2002-11-26 09:26:01 51°21.746 2°38.532 27.081528 0.066846 0.351327  
2002-11-26 09:26:06 51°21.765 2°38.523 27.975233 0.066846 0.351321  
2002-11-26 09:26:11 51°21.783 2°38.514 26.935558 0.066846 0.351332  
2002-11-26 09:26:16 51°21.802 2°38.505 28.808699 0.066846 0.351332  
2002-11-26 09:26:20 51°21.817 2°38.499 28.635251 0.066846 0.351332  
2002-11-26 09:26:26 51°21.84 2°38.487 30.057202 0.066846 0.351332  
2002-11-26 09:26:31 51°21.858 2°38.478 30.057202 0.066846 0.351332  
2002-11-26 09:26:36 51°21.877 2°38.469 28.812929 0.066846 0.351337  
2002-11-26 09:26:40 51°21.892 2°38.462 29.019898 0.066846 0.351337  
2002-11-26 09:26:46 51°21.915 2°38.451 28.824649 0.066846 0.351327  
2002-11-26 09:26:51 51°21.933 2°38.441 28.291912 0.066846 0.351332  
2002-11-26 09:26:56 51°21.952 2°38.432 29.377831 0.066846 0.351337  
2002-11-26 09:27:01 51°21.97 2°38.423 29.377831 0.066846 0.351337  
2002-11-26 09:27:06 51°21.989 2°38.413 28.750353 0.066846 0.351343  
2002-11-26 09:27:11 51°22.008 2°38.404 28.795542 0.066846 0.351343  
2002-11-26 09:27:16 51°22.026 2°38.395 28.744039 0.066846 0.351337  
2002-11-26 09:27:20 51°22.041 2°38.387 28.975059 0.066846 0.351353  
2002-11-26 09:27:26 51°22.063 2°38.375 29.413719 0.066846 0.351353  
2002-11-26 09:27:31 51°22.081 2°38.366 29.413719 0.066846 0.351353  
2002-11-26 09:27:36 51°22.1 2°38.356 29.153791 0.066846 0.351348  
2002-11-26 09:27:41 51°22.118 2°38.347 28.882435 0.066846 0.351353  
2002-11-26 09:27:46 51°22.137 2°38.337 28.536487 0.066846 0.351353  
2002-11-26 09:27:51 51°22.155 2°38.328 28.512954 0.066846 0.351353  
2002-11-26 09:27:56 51°22.173 2°38.317 29.887488 0.066846 0.351353  
2002-11-26 09:28:00 51°22.188 2°38.31 29.887488 0.066846 0.351353  
2002-11-26 09:28:06 51°22.21 2°38.298 28.810491 0.066846 0.351353  
2002-11-26 09:28:11 51°22.229 2°38.288 29.99618 0.066846 0.351359  
2002-11-26 09:28:16 51°22.247 2°38.278 30.459563 0.066846 0.351359  
2002-11-26 09:28:20 51°22.262 2°38.27 29.507645 0.066846 0.351359  
2002-11-26 09:28:26 51°22.284 2°38.258 29.596879 0.066846 0.351364  
2002-11-26 09:28:31 51°22.303 2°38.248 29.596879 0.066846 0.351364  
2002-11-26 09:28:36 51°22.322 2°38.238 30.205988 0.066846 0.351364  
2002-11-26 09:28:40 51°22.336 2°38.23 30.438902 0.066846 0.35137  
2002-11-26 09:28:46 51°22.359 2°38.218 30.888514 0.066846 0.35137  
2002-11-26 09:28:51 51°22.377 2°38.207 28.813681 0.066846 0.35137  
2002-11-26 09:28:56 51°22.396 2°38.197 30.098302 0.066846 0.351375  
2002-11-26 09:29:00 51°22.411 2°38.19 30.098302 0.066846 0.351375  
2002-11-26 09:29:06 51°22.433 2°38.178 30.875365 0.066846 0.351375  
2002-11-26 09:29:11 51°22.452 2°38.168 29.957354 0.066846 0.35138  
2002-11-26 09:29:16 51°22.47 2°38.158 30.418236 0.066846 0.351375  
2002-11-26 09:29:20 51°22.485 2°38.15 29.949622 0.066846 0.35138  
2002-11-26 09:29:26 51°22.507 2°38.138 30.700094 0.066846 0.35138  
2002-11-26 09:29:31 51°22.525 2°38.128 30.700094 0.066846 0.35138  
2002-11-26 09:29:36 51°22.544 2°38.118 30.700269 0.066846 0.35138  
2002-11-26 09:29:41 51°22.563 2°38.108 30.363123 0.066846 0.35138  
2002-11-26 09:29:46 51°22.581 2°38.098 30.450549 0.066846 0.35138  
2002-11-26 09:29:51 51°22.599 2°38.088 30.544601 0.066846 0.35138  
2002-11-26 09:29:56 51°22.617 2°38.079 30.522597 0.066846 0.351391  
2002-11-26 09:30:00 51°22.632 2°38.07 30.522597 0.066846 0.351391  
2002-11-26 09:30:06 51°22.654 2°38.059 30.780743 0.066846 0.351391  
2002-11-26 09:30:11 51°22.673 2°38.048 30.937986 0.066846 0.351391  
2002-11-26 09:30:16 51°22.691 2°38.039 29.934261 0.066846 0.351391  
2002-11-26 09:30:20 51°22.706 2°38.031 29.528455 0.066846 0.351391  
2002-11-26 09:30:26 51°22.729 2°38.019 30.372463 0.066846 0.351396  
2002-11-26 09:30:31 51°22.747 2°38.008 30.372463 0.066846 0.351396  
2002-11-26 09:30:36 51°22.766 2°37.999 30.226888 0.066846 0.351396  
2002-11-26 09:30:40 51°22.781 2°37.99 29.751033 0.066846 0.351402  
2002-11-26 09:30:46 51°22.803 2°37.978 29.800012 0.066846 0.351402  
2002-11-26 09:30:51 51°22.821 2°37.968 30.834647 0.066846 0.351396  
2002-11-26 09:30:56 51°22.84 2°37.958 29.861511 0.066846 0.351402  
2002-11-26 09:31:01 51°22.859 2°37.948 29.861511 0.066846 0.351402  
2002-11-26 09:31:06 51°22.877 2°37.938 29.598475 0.066846 0.351396  
2002-11-26 09:31:11 51°22.896 2°37.928 29.458511 0.066846 0.351412  
2002-11-26 09:31:16 51°22.914 2°37.917 30.616 0.066846 0.351407  
2002-11-26 09:31:20 51°22.929 2°37.908 29.396791 0.066846 0.351407  
2002-11-26 09:31:26 51°22.951 2°37.896 29.889432 0.066846 0.351412  
2002-11-26 09:31:31 51°22.97 2°37.886 29.889432 0.066846 0.351412  
2002-11-26 09:31:36 51°22.988 2°37.876 30.120289 0.066846 0.351407  
2002-11-26 09:31:40 51°23.003 2°37.867 30.133534 0.066846 0.351412  
2002-11-26 09:31:46 51°23.025 2°37.855 30.346089 0.066846 0.351412  
2002-11-26 09:31:51 51°23.043 2°37.845 29.864409 0.06695 0.351976  
2002-11-26 09:31:56 51°23.062 2°37.835 31.341974 0.066846 0.351418  
2002-11-26 09:32:00 51°23.076 2°37.827 31.341974 0.066846 0.351418  
2002-11-26 09:32:06 51°23.099 2°37.815 29.443157 0.066846 0.351412  
2002-11-26 09:32:11 51°23.117 2°37.805 29.851011 0.066846 0.351423  
2002-11-26 09:32:16 51°23.136 2°37.795 29.930553 0.066846 0.351412  
2002-11-26 09:32:20 51°23.15 2°37.786 30.025709 0.066846 0.351418  
2002-11-26 09:32:26 51°23.172 2°37.774 29.061888 0.066846 0.351429  
2002-11-26 09:32:31 51°23.191 2°37.764 29.061888 0.066846 0.351429  
2002-11-26 09:32:36 51°23.209 2°37.752 30.604624 0.066846 0.351423  
2002-11-26 09:32:41 51°23.228 2°37.741 28.80264 0.066846 0.351429  
2002-11-26 09:32:46 51°23.246 2°37.73 29.298097 0.066846 0.351429  
2002-11-26 09:32:51 51°23.264 2°37.719 29.590068 0.066846 0.351429  
2002-11-26 09:32:56 51°23.283 2°37.709 29.740659 0.066846 0.351434  
2002-11-26 09:33:00 51°23.297 2°37.699 29.740659 0.066846 0.351434  
2002-11-26 09:33:06 51°23.319 2°37.687 29.526182 0.066846 0.351423  
2002-11-26 09:33:11 51°23.337 2°37.675 30.120007 0.066846 0.351439  
2002-11-26 09:33:16 51°23.356 2°37.665 30.588064 0.066846 0.351434  
2002-11-26 09:33:20 51°23.37 2°37.656 29.399423 0.066846 0.351439  
2002-11-26 09:33:26 51°23.392 2°37.644 29.740518 0.066846 0.351434  
2002-11-26 09:33:31 51°23.41 2°37.633 29.740518 0.066846 0.351434  
2002-11-26 09:33:36 51°23.428 2°37.622 30.818103 0.066846 0.351439  
2002-11-26 09:33:40 51°23.443 2°37.613 29.16949 0.066846 0.351434  
2002-11-26 09:33:46 51°23.465 2°37.6 28.787976 0.066846 0.351445  
2002-11-26 09:33:51 51°23.483 2°37.59 28.823825 0.066846 0.351445  
2002-11-26 09:33:56 51°23.501 2°37.578 29.760024 0.066846 0.351445  
2002-11-26 09:34:00 51°23.516 2°37.57 29.760024 0.066846 0.351445  
2002-11-26 09:34:06 51°23.538 2°37.557 29.437078 0.06695 0.352008  
2002-11-26 09:34:11 51°23.556 2°37.546 30.072785 0.066846 0.35145  
2002-11-26 09:34:16 51°23.574 2°37.536 30.970915 0.066846 0.35145  
2002-11-26 09:34:20 51°23.589 2°37.528 30.707925 0.066846 0.351445  
2002-11-26 09:34:26 51°23.611 2°37.515 29.100105 0.066846 0.35145  
2002-11-26 09:34:31 51°23.629 2°37.504 29.100105 0.066846 0.35145  
2002-11-26 09:34:36 51°23.647 2°37.493 30.181 0.06695 0.352019  
2002-11-26 09:34:40 51°23.662 2°37.484 30.1441 0.066846 0.351455  
2002-11-26 09:34:46 51°23.684 2°37.471 30.91097 0.066846 0.351455  
2002-11-26 09:34:51 51°23.703 2°37.46 28.919599 0.066846 0.351461  
2002-11-26 09:34:56 51°23.721 2°37.449 30.059458 0.066846 0.351461  
2002-11-26 09:35:01 51°23.739 2°37.438 30.059458 0.066846 0.351461  
2002-11-26 09:35:06 51°23.758 2°37.427 30.429886 0.066846 0.351455  
2002-11-26 09:35:11 51°23.776 2°37.414 28.424947 0.066846 0.351461  
2002-11-26 09:35:16 51°23.794 2°37.402 29.859637 0.066846 0.351466  
2002-11-26 09:35:20 51°23.808 2°37.392 29.85444 0.066846 0.351461  
2002-11-26 09:35:26 51°23.829 2°37.377 29.397822 0.066846 0.351466  
2002-11-26 09:35:31 51°23.847 2°37.365 29.397822 0.066846 0.351466  
2002-11-26 09:35:36 51°23.865 2°37.351 27.980779 0.066846 0.351466  
2002-11-26 09:35:40 51°23.88 2°37.341 28.460753 0.066846 0.351466  
2002-11-26 09:35:46 51°23.901 2°37.325 29.199665 0.066846 0.351466  
2002-11-26 09:35:51 51°23.919 2°37.31 29.25777 0.066846 0.351472  
2002-11-26 09:35:56 51°23.936 2°37.296 29.36826 0.066846 0.351472  
2002-11-26 09:36:01 51°23.953 2°37.281 29.36826 0.066846 0.351472  
2002-11-26 09:36:06 51°23.97 2°37.266 28.835364 0.066846 0.351477  
2002-11-26 09:36:11 51°23.988 2°37.251 28.645886 0.066846 0.351472  
2002-11-26 09:36:16 51°24.005 2°37.235 29.906462 0.066846 0.351477  
2002-11-26 09:36:20 51°24.018 2°37.223 30.047117 0.06695 0.35204  
2002-11-26 09:36:26 51°24.039 2°37.204 29.383558 0.06695 0.35204  
2002-11-26 09:36:31 51°24.056 2°37.188 29.383558 0.06695 0.35204  
2002-11-26 09:36:36 51°24.073 2°37.173 29.205442 0.066846 0.351477  
2002-11-26 09:36:40 51°24.087 2°37.161 29.125026 0.066846 0.351477  
2002-11-26 09:36:46 51°24.108 2°37.142 29.045524 0.066846 0.351482  
2002-11-26 09:36:51 51°24.125 2°37.127 29.7998 0.066846 0.351482  
2002-11-26 09:36:56 51°24.142 2°37.111 30.515167 0.066846 0.351488  
2002-11-26 09:37:01 51°24.159 2°37.096 30.515167 0.066846 0.351488  
2002-11-26 09:37:06 51°24.176 2°37.08 30.013962 0.066846 0.351493  
2002-11-26 09:37:11 51°24.193 2°37.065 29.648157 0.066846 0.351493  
2002-11-26 09:37:16 51°24.211 2°37.049 30.307794 0.06695 0.352051  
2002-11-26 09:37:20 51°24.225 2°37.037 28.453658 0.066846 0.351493  
2002-11-26 09:37:26 51°24.246 2°37.018 28.815617 0.066846 0.351493  
2002-11-26 09:37:31 51°24.263 2°37.003 28.815617 0.066846 0.351493  
2002-11-26 09:37:36 51°24.28 2°36.988 29.365485 0.066846 0.351498  
2002-11-26 09:37:40 51°24.294 2°36.976 28.78206 0.06695 0.352056  
2002-11-26 09:37:46 51°24.314 2°36.957 29.252888 0.066846 0.351504  
2002-11-26 09:37:51 51°24.331 2°36.941 29.864409 0.066846 0.351504  
2002-11-26 09:37:56 51°24.348 2°36.926 30.006236 0.066846 0.351504  
2002-11-26 09:38:01 51°24.365 2°36.911 30.006236 0.066846 0.351504  
2002-11-26 09:38:06 51°24.382 2°36.894 31.436805 0.066846 0.351504  
2002-11-26 09:38:11 51°24.399 2°36.878 29.584214 0.066846 0.351504  
2002-11-26 09:38:16 51°24.416 2°36.862 30.84878 0.066846 0.351509  
2002-11-26 09:38:20 51°24.429 2°36.85 29.776659 0.066846 0.351509  
2002-11-26 09:38:26 51°24.45 2°36.831 30.094567 0.066846 0.351509  
2002-11-26 09:38:31 51°24.467 2°36.815 30.094567 0.066846 0.351509  
2002-11-26 09:38:36 51°24.484 2°36.799 31.014589 0.066846 0.351509  
2002-11-26 09:38:40 51°24.498 2°36.787 30.408305 0.066846 0.351509  
2002-11-26 09:38:46 51°24.519 2°36.77 30.643295 0.066846 0.351509  
2002-11-26 09:38:51 51°24.536 2°36.755 29.258911 0.066846 0.351509  
2002-11-26 09:38:56 51°24.554 2°36.741 29.352175 0.06695 0.352083  
2002-11-26 09:39:01 51°24.572 2°36.727 29.352175 0.06695 0.352083  
2002-11-26 09:39:06 51°24.589 2°36.713 30.768553 0.066846 0.351514  
2002-11-26 09:39:11 51°24.606 2°36.699 30.638117 0.066846 0.35152  
2002-11-26 09:39:16 51°24.624 2°36.685 29.336266 0.066846 0.35152  
2002-11-26 09:39:20 51°24.638 2°36.673 30.228506 0.066846 0.35152  
2002-11-26 09:39:26 51°24.659 2°36.656 29.680303 0.06695 0.352094  
2002-11-26 09:39:31 51°24.677 2°36.641 29.680303 0.06695 0.352094  
2002-11-26 09:39:36 51°24.694 2°36.627 28.787188 0.066846 0.35152  
2002-11-26 09:39:40 51°24.708 2°36.616 30.290291 0.066846 0.351531  
2002-11-26 09:39:46 51°24.729 2°36.599 29.797536 0.066846 0.351525  
2002-11-26 09:39:51 51°24.747 2°36.586 29.746289 0.066846 0.351531  
2002-11-26 09:39:56 51°24.764 2°36.573 27.74823 0.066846 0.351536  
2002-11-26 09:40:01 51°24.782 2°36.559 27.74823 0.066846 0.351536  
2002-11-26 09:40:06 51°24.801 2°36.547 29.895368 0.066846 0.351525  
2002-11-26 09:40:11 51°24.818 2°36.535 29.798385 0.066846 0.351525  
2002-11-26 09:40:16 51°24.836 2°36.525 30.730295 0.066846 0.351531  
2002-11-26 09:40:20 51°24.851 2°36.516 30.410762 0.066846 0.351536  
2002-11-26 09:40:26 51°24.873 2°36.504 30.792057 0.066846 0.351547  
2002-11-26 09:40:31 51°24.891 2°36.494 30.792057 0.066846 0.351547  
2002-11-26 09:40:36 51°24.91 2°36.484 30.07 0.066846 0.351547  
2002-11-26 09:40:41 51°24.928 2°36.473 30.873621 0.066846 0.351547  
2002-11-26 09:40:46 51°24.947 2°36.464 29.867697 0.066846 0.351547  
2002-11-26 09:40:51 51°24.965 2°36.453 30.995402 0.066846 0.351547  
2002-11-26 09:40:56 51°24.984 2°36.443 30.247887 0.066846 0.351552  
2002-11-26 09:41:00 51°24.999 2°36.435 30.247887 0.066846 0.351552  
2002-11-26 09:41:06 51°25.021 2°36.423 31.117406 0.066846 0.351541  
2002-11-26 09:41:11 51°25.039 2°36.412 30.193636 0.066846 0.351552  
2002-11-26 09:41:16 51°25.058 2°36.403 29.354418 0.066846 0.351541  
2002-11-26 09:41:21 51°25.076 2°36.392 29.508214 0.066846 0.351547  
2002-11-26 09:41:26 51°25.094 2°36.382 28.479478 0.066846 0.351547  
2002-11-26 09:41:31 51°25.113 2°36.371 28.479478 0.066846 0.351547  
2002-11-26 09:41:36 51°25.131 2°36.36 30.517655 0.066846 0.351547  
2002-11-26 09:41:41 51°25.149 2°36.349 30.260372 0.066846 0.351557  
2002-11-26 09:41:46 51°25.167 2°36.339 29.244157 0.066846 0.351552  
2002-11-26 09:41:51 51°25.185 2°36.329 28.723443 0.066846 0.351557  
2002-11-26 09:41:56 51°25.203 2°36.318 29.421542 0.066846 0.351557  
2002-11-26 09:42:00 51°25.218 2°36.31 29.421542 0.066846 0.351557  
2002-11-26 09:42:06 51°25.24 2°36.298 28.34369 0.066846 0.351568  
2002-11-26 09:42:11 51°25.258 2°36.287 28.608047 0.066846 0.351557  
2002-11-26 09:42:16 51°25.277 2°36.278 29.921899 0.066846 0.351547  
2002-11-26 09:42:20 51°25.291 2°36.269 29.140409 0.066846 0.351563  
2002-11-26 09:42:26 51°25.313 2°36.257 28.791885 0.066846 0.351557  
2002-11-26 09:42:31 51°25.332 2°36.246 28.791885 0.066846 0.351557  
2002-11-26 09:42:36 51°25.351 2°36.236 29.834746 0.066846 0.351563  
2002-11-26 09:42:41 51°25.369 2°36.226 29.058637 0.066846 0.351563  
2002-11-26 09:42:46 51°25.387 2°36.216 28.140992 0.066846 0.351563  
2002-11-26 09:42:51 51°25.406 2°36.206 29.147761 0.066846 0.351563  
2002-11-26 09:42:56 51°25.424 2°36.196 30.073983 0.066846 0.351563  
2002-11-26 09:43:00 51°25.439 2°36.188 30.073983 0.066846 0.351563  
2002-11-26 09:43:06 51°25.461 2°36.175 30.190363 0.066846 0.351574  
2002-11-26 09:43:11 51°25.479 2°36.165 30.25267 0.066846 0.351568  
2002-11-26 09:43:16 51°25.498 2°36.155 29.389463 0.066846 0.351574  
2002-11-26 09:43:20 51°25.512 2°36.147 28.741169 0.066846 0.351574  
2002-11-26 09:43:26 51°25.534 2°36.135 30.367547 0.066846 0.351574  
2002-11-26 09:43:31 51°25.552 2°36.125 30.367547 0.066846 0.351574  
2002-11-26 09:43:36 51°25.571 2°36.115 29.906144 0.066846 0.351579